EGNX/EMA METAR and TAF weather

Enter ICAO airport designator
Station Type Date Time Source
EGNX METAR 2018/01/22 19:50 UTC NOAA

EGNX 221950Z 25016KT 9999 FEW038 06/04 Q1015


Station Type Date Time Source
EGNX Decoded METAR 2018/01/22 19:50 UTC NOAA

East Midlands, United Kingdom (EGNX) 52-50N 001-20W
Jan 22, 2018 - 02:50 PM EST / 2018.01.22 1950 UTC
Wind: from the WSW (250 degrees) at 18 MPH (16 KT):0
Visibility: greater than 7 mile(s):0
Sky conditions: mostly clear
Temperature: 42 F (6 C)
Dew Point: 39 F (4 C)
Relative Humidity: 86%
Pressure (altimeter): 29.97 in. Hg (1015 hPa)
ob: EGNX 221950Z 25016KT 9999 FEW038 06/04 Q1015
cycle: 20

Station Type Date Time Source
EGNX TAF 2018/01/22 18:15 UTC NOAA

TAF EGNX 221702Z 2218/2318 22011KT 9999 SCT045
TEMPO 2305/2318 24017G27KT
TEMPO 2306/2312 6000 -RA BKN012 PROB30
TEMPO 2306/2310 4000 RADZ BKN008


Example: see airport list